Lake Havasu City, AZ

12:44 PM MST on August 03, 2015 (GMT -0700)
Little Finger Road | | Change Station
CLOSE
Current Station
Personal Weather Station
Location: Lake Havasu City, AZ
Elevation: 1180 ft
Nearby Weather Stations

Elev 1180 ft 34.47 °N, 114.26 °W | Updated 4 minutes ago

Clear
Clear
106.1 °F
Feels Like 102 °F
N
6.0
Wind Variable Wind from SSE
Gusts 12.0 mph

Today
High -- | Low -- °F
--% Chance of Precip.
Yesterday
High -- | Low -- °F
Precip. -- in
5:48 AM 7:37 PM
Waning Gibbous, 84% visible
Pressure 29.68 in
Visibility 10.0 miles
Clouds Clear
Heat Index 102 °F
Dew Point 45 °F
Humidity 13%
Rainfall 0.00 in
Snow Depth Not available.
UV 11 out of 12
Pollen 5.10 out of 12
Air Quality Not available.
Flu Activity Not available.
METAR KEED 031856Z AUTO 23010G19KT 10SM CLR 42/04 A2980 RMK AO2 SLP049 T04220044

More Conditions Fewer Conditions

Pressure 29.68 in
Visibility 10.0 miles
Clouds Clear
Heat Index 102 °F
Dew Point 45 °F
Humidity 13%
Rainfall 0.00 in
Snow Depth Not available.
UV 11 out of 12
Pollen 5.10 out of 12
Air Quality Not available.
Flu Activity Not available.
METAR KEED 031856Z AUTO 23010G19KT 10SM CLR 42/04 A2980 RMK AO2 SLP049 T04220044

More Conditions Fewer Conditions

10-Day Weather Forecast

×

Almanac

Astronomy

Aug. 03, 2015 Rise Set
Actual Time
Civil Twilight
Nautical Twilight
Astronomical Twilight
Moon
Length of Visible Light
Length of Day
Tomorrow will be .
, % of the Moon is Illuminated

Today's Extremes

State Highs State Lows

Community

WunderPhotos

Upload Photos

1,843,717 photos uploaded!

WunderBlogs® & News

Nearby

Air Quality

  Air Quality AQ Index Pollutant
Not available.

Snow Depth

Station Depth Elevation

Earthquake Activity

City Distance Mag. Time & Date
Minimum magnitude displayed is 2.5.

Coastal Water Temperatures

Place Temperature

Stations

Nearby Weather Stations

Station Location Temp. Windchill Dew Point Humidity Wind Precip. Elev Updated Type